createdAt,value
2022-09-03T00:03:02.350Z,97369.16
2022-09-03T00:08:18.593Z,97363.97
2022-09-03T00:13:27.852Z,97367.53
2022-09-03T00:18:33.816Z,97365.44
2022-09-03T00:23:41.920Z,97370.59
2022-09-03T00:29:02.244Z,97379.13
2022-09-03T00:34:30.361Z,97383.47
2022-09-03T00:39:41.714Z,97381.06
2022-09-03T00:45:21.778Z,97396.69
2022-09-03T00:50:31.692Z,97396.69
2022-09-03T00:55:36.399Z,97397.81
2022-09-03T01:00:43.065Z,97410.34
2022-09-03T01:06:11.868Z,97403.75
2022-09-03T01:11:49.555Z,97399.75
2022-09-03T01:17:23.189Z,97401.97
2022-09-03T01:22:36.503Z,97417.25
2022-09-03T01:28:04.125Z,97417.91
2022-09-03T01:33:11.970Z,97413.06
2022-09-03T01:38:34.556Z,97422.53
2022-09-03T01:44:04.374Z,97420.47
2022-09-03T01:49:21.012Z,97417.25
2022-09-03T01:54:44.489Z,97419.78
2022-09-03T02:00:03.804Z,97427.53
2022-09-03T02:05:27.033Z,97435.09
2022-09-03T02:10:42.052Z,97429.59
2022-09-03T02:15:50.619Z,97434.28
2022-09-03T02:20:56.461Z,97430.88
2022-09-03T02:26:04.088Z,97417.06
2022-09-03T02:31:07.624Z,97421.53
2022-09-03T02:36:14.252Z,97425.72
2022-09-03T02:41:18.141Z,97427.66
2022-09-03T02:46:30.184Z,97426.53
2022-09-03T02:51:43.200Z,97424.25
2022-09-03T02:56:46.606Z,97425.41
2022-09-03T03:01:50.112Z,97415.72
2022-09-03T03:06:54.383Z,97418.97
2022-09-03T03:11:58.023Z,97420.59
2022-09-03T03:17:01.706Z,97418.50
2022-09-03T03:22:05.554Z,97427.19
2022-09-03T03:27:08.810Z,97430.25
2022-09-03T03:32:12.093Z,97426.22
2022-09-03T03:37:15.993Z,97443.94
2022-09-03T03:42:27.188Z,97442.94
2022-09-03T03:47:30.712Z,97445.53
2022-09-03T03:52:34.550Z,97441.00
2022-09-03T03:57:38.069Z,97444.88
2022-09-03T04:02:43.710Z,97451.81
2022-09-03T04:07:47.015Z,97448.41
2022-09-03T04:12:55.109Z,97452.16
2022-09-03T04:17:58.701Z,97450.69
2022-09-03T04:23:03.984Z,97450.69
2022-09-03T04:28:07.401Z,97441.88
2022-09-03T04:33:16.000Z,97444.13
2022-09-03T04:38:19.972Z,97451.72
2022-09-03T04:43:23.519Z,97450.28
2022-09-03T04:48:29.638Z,97445.00
2022-09-03T04:53:38.215Z,97445.84
2022-09-03T04:58:43.321Z,97454.88
2022-09-03T05:03:48.247Z,97446.16
2022-09-03T05:08:53.482Z,97450.19
2022-09-03T05:13:59.811Z,97449.53
2022-09-03T05:19:03.577Z,97448.41
2022-09-03T05:24:07.147Z,97459.38
2022-09-03T05:29:10.731Z,97455.00
2022-09-03T05:34:18.605Z,97455.50
2022-09-03T05:39:22.582Z,97460.81
2022-09-03T05:44:29.813Z,97458.09
2022-09-03T05:49:33.395Z,97470.03
2022-09-03T05:54:36.592Z,97463.56
2022-09-03T05:59:39.956Z,97475.50
2022-09-03T06:04:44.446Z,97482.91
2022-09-03T06:09:47.954Z,97498.84
2022-09-03T06:14:51.661Z,97494.50
2022-09-03T06:19:54.903Z,97483.38
2022-09-03T06:24:58.182Z,97493.06
2022-09-03T06:30:04.217Z,97495.47
2022-09-03T06:35:08.603Z,97491.13
2022-09-03T06:40:13.032Z,97501.91
2022-09-03T06:45:16.475Z,97501.09
2022-09-03T06:50:19.847Z,97493.44
2022-09-03T06:55:24.078Z,97498.53
2022-09-03T07:00:27.683Z,97499.44
2022-09-03T07:05:34.196Z,97499.50
2022-09-03T07:10:38.220Z,97495.94
2022-09-03T07:15:42.351Z,97509.44
2022-09-03T07:20:46.316Z,97500.00
2022-09-03T07:26:01.366Z,97500.78
2022-09-03T07:31:19.001Z,97498.84
2022-09-03T07:36:23.347Z,97488.00
2022-09-03T07:41:29.042Z,97487.25
2022-09-03T07:46:36.866Z,97483.75
2022-09-03T07:51:40.656Z,97476.59
2022-09-03T07:56:45.658Z,97480.34
2022-09-03T08:01:49.074Z,97485.50
2022-09-03T08:06:52.306Z,97480.34
2022-09-03T08:11:55.430Z,97485.78
2022-09-03T08:16:58.830Z,97486.25
2022-09-03T08:22:02.736Z,97479.19
2022-09-03T08:27:06.685Z,97477.84
2022-09-03T08:32:10.497Z,97468.41
2022-09-03T08:37:17.475Z,97466.00
2022-09-03T08:42:45.966Z,97467.06
2022-09-03T08:47:55.400Z,97466.19
2022-09-03T08:53:54.664Z,97465.63
2022-09-03T08:58:58.265Z,97469.41
2022-09-03T09:04:30.020Z,97463.22
2022-09-03T09:09:52.727Z,97470.66
2022-09-03T09:15:08.302Z,97466.88
2022-09-03T09:20:36.198Z,97469.19
2022-09-03T09:25:48.367Z,97467.38
2022-09-03T09:30:52.510Z,97475.38
2022-09-03T09:35:56.444Z,97468.81
2022-09-03T09:41:14.635Z,97473.50
2022-09-03T09:46:25.528Z,97467.84
2022-09-03T09:51:31.489Z,97472.28
2022-09-03T09:56:38.174Z,97463.38
2022-09-03T10:01:44.095Z,97456.47
2022-09-03T10:07:00.622Z,97456.81
2022-09-03T10:12:28.935Z,97457.63
2022-09-03T10:17:51.226Z,97451.78
2022-09-03T10:22:57.756Z,97452.13
2022-09-03T10:28:01.532Z,97450.03
2022-09-03T10:33:27.474Z,97445.78
2022-09-03T10:38:34.925Z,97439.84
2022-09-03T10:43:45.616Z,97445.34
2022-09-03T10:49:19.801Z,97436.78
2022-09-03T10:54:36.164Z,97429.56
2022-09-03T11:00:01.200Z,97433.69
2022-09-03T11:05:16.514Z,97442.16
2022-09-03T11:10:30.844Z,97429.34
2022-09-03T11:15:41.646Z,97427.91
2022-09-03T11:20:46.275Z,97418.63
2022-09-03T11:25:54.316Z,97416.19
2022-09-03T11:31:15.836Z,97414.38
2022-09-03T11:36:33.698Z,97409.09
2022-09-03T11:41:37.968Z,97410.13
2022-09-03T11:46:41.856Z,97394.75
2022-09-03T11:51:59.835Z,97413.13
2022-09-03T11:57:23.625Z,97400.72
2022-09-03T12:02:32.635Z,97397.75
2022-09-03T12:07:44.690Z,97396.38
2022-09-03T12:13:06.734Z,97403.38
2022-09-03T12:18:35.448Z,97393.16
2022-09-03T12:23:48.726Z,97388.22
2022-09-03T12:28:55.279Z,97385.91
2022-09-03T12:34:09.942Z,97378.19
2022-09-03T12:39:19.304Z,97383.59
2022-09-03T12:44:39.415Z,97372.69
2022-09-03T12:49:48.341Z,97369.38
2022-09-03T12:54:58.690Z,97375.78
2022-09-03T13:00:06.975Z,97369.38
2022-09-03T13:05:21.671Z,97377.47
2022-09-03T13:10:36.407Z,97373.69
2022-09-03T13:15:45.299Z,97370.09
2022-09-03T13:21:33.655Z,97360.44
2022-09-03T13:27:00.396Z,97357.75
2022-09-03T13:32:12.455Z,97362.69
2022-09-03T13:37:23.111Z,97365.13
2022-09-03T13:42:30.115Z,97359.81
2022-09-03T13:48:21.848Z,97360.94
2022-09-03T13:59:19.022Z,97356.78
2022-09-03T14:04:32.317Z,97359.91
2022-09-03T14:09:51.159Z,97363.50
2022-09-03T14:15:09.973Z,97358.53
2022-09-03T14:21:03.423Z,97336.66
2022-09-03T14:26:09.144Z,97348.72
2022-09-03T14:31:27.734Z,97345.97
2022-09-03T14:36:40.300Z,97343.47
2022-09-03T14:42:03.186Z,97347.69
2022-09-03T14:47:12.545Z,97355.47
2022-09-03T14:52:51.240Z,97348.22
2022-09-03T14:58:13.457Z,97350.34
2022-09-03T15:03:21.244Z,97356.31
2022-09-03T15:08:47.714Z,97355.84
2022-09-03T15:14:11.030Z,97352.50
2022-09-03T15:19:56.189Z,97345.59
2022-09-03T15:25:13.709Z,97344.28
2022-09-03T15:30:20.026Z,97342.03
2022-09-03T15:36:00.466Z,97359.78
2022-09-03T15:41:11.124Z,97359.66
2022-09-03T15:46:32.259Z,97354.66
2022-09-03T15:52:16.886Z,97360.13
2022-09-03T15:57:29.500Z,97354.69
2022-09-03T16:02:47.814Z,97364.19
2022-09-03T16:08:25.111Z,97366.91
2022-09-03T16:14:02.551Z,97362.56
2022-09-03T16:19:19.174Z,97369.34
2022-09-03T16:24:41.525Z,97367.41
2022-09-03T16:30:05.800Z,97372.72
2022-09-03T16:35:39.364Z,97374.66
2022-09-03T16:41:01.264Z,97375.16
2022-09-03T16:46:20.102Z,97380.09
2022-09-03T16:51:47.919Z,97391.69
2022-09-03T16:56:56.722Z,97384.28
2022-09-03T17:02:39.966Z,97407.00
2022-09-03T17:08:14.332Z,97411.66
2022-09-03T17:13:29.680Z,97402.31
2022-09-03T17:19:02.184Z,97413.25
2022-09-03T17:24:32.851Z,97427.72
2022-09-03T17:29:58.075Z,97423.38
2022-09-03T17:35:08.881Z,97423.09
2022-09-03T17:40:34.160Z,97426.94
2022-09-03T17:45:49.059Z,97430.31
2022-09-03T17:51:01.022Z,97433.69
2022-09-03T17:56:31.280Z,97438.00
2022-09-03T18:01:38.875Z,97445.25
2022-09-03T18:06:51.642Z,97444.28
2022-09-03T18:12:27.329Z,97445.22
2022-09-03T18:17:46.735Z,97444.25
2022-09-03T18:23:05.610Z,97444.06
2022-09-03T18:28:13.138Z,97446.34
2022-09-03T18:33:24.067Z,97445.34
2022-09-03T18:38:33.312Z,97456.41
2022-09-03T18:43:57.108Z,97459.47
2022-09-03T18:54:16.547Z,97456.03
2022-09-03T18:59:26.168Z,97458.44
2022-09-03T19:04:37.498Z,97458.44
2022-09-03T19:10:05.080Z,97456.22
2022-09-03T19:15:27.451Z,97457.31
2022-09-03T19:20:35.575Z,97454.09
2022-09-03T19:25:39.134Z,97456.38
2022-09-03T19:31:01.038Z,97457.50
2022-09-03T19:36:09.196Z,97453.56
2022-09-03T19:41:24.868Z,97451.84
2022-09-03T19:46:51.395Z,97452.47
2022-09-03T19:52:13.620Z,97445.69
2022-09-03T19:57:20.720Z,97447.94
2022-09-03T20:02:25.713Z,97443.09
2022-09-03T20:07:30.034Z,97447.28
2022-09-03T20:12:38.137Z,97445.66
2022-09-03T20:18:17.214Z,97442.13
2022-09-03T20:23:31.878Z,97449.34
2022-09-03T20:29:01.520Z,97447.25
2022-09-03T20:34:16.189Z,97435.47
2022-09-03T20:39:36.741Z,97444.78
2022-09-03T20:45:08.194Z,97438.84
2022-09-03T20:50:36.224Z,97434.81
2022-09-03T20:55:45.316Z,97426.13
2022-09-03T21:00:53.003Z,97427.25
2022-09-03T21:06:28.145Z,97423.50
2022-09-03T21:11:34.191Z,97424.97
2022-09-03T21:17:18.865Z,97421.41
2022-09-03T21:22:52.791Z,97420.63
2022-09-03T21:28:24.521Z,97410.00
2022-09-03T21:33:32.361Z,97410.50
2022-09-03T21:38:40.392Z,97409.69
2022-09-03T21:43:47.472Z,97407.75
2022-09-03T21:48:56.838Z,97405.34
2022-09-03T21:54:07.616Z,97397.31
2022-09-03T21:59:32.418Z,97403.28
2022-09-03T22:04:35.745Z,97399.75
2022-09-03T22:10:04.116Z,97385.91
2022-09-03T22:15:13.233Z,97390.06
2022-09-03T22:20:19.200Z,97390.69
2022-09-03T22:25:37.460Z,97381.19
2022-09-03T22:30:54.511Z,97385.34
2022-09-03T22:36:04.115Z,97381.00
2022-09-03T22:41:38.747Z,97374.41
2022-09-03T22:47:10.287Z,97363.81
2022-09-03T22:52:32.172Z,97369.91
2022-09-03T22:58:01.225Z,97377.59
2022-09-03T23:03:19.844Z,97378.72
2022-09-03T23:08:29.208Z,97377.91
2022-09-03T23:13:41.310Z,97381.94
2022-09-03T23:18:47.290Z,97374.53
2022-09-03T23:24:03.535Z,97369.41
2022-09-03T23:29:22.155Z,97374.69
2022-09-03T23:34:29.343Z,97374.31
2022-09-03T23:39:56.968Z,97378.94
2022-09-03T23:45:38.046Z,97374.13
2022-09-03T23:50:58.038Z,97389.22
2022-09-03T23:56:13.978Z,97387.41
